createdAt,value
2022-08-05T00:00:21.028Z,99542.91
2022-08-05T00:02:51.496Z,99555.00
2022-08-05T00:06:01.876Z,99554.84
2022-08-05T00:08:32.694Z,99554.34
2022-08-05T00:11:01.815Z,99551.69
2022-08-05T00:13:39.064Z,99546.91
2022-08-05T00:16:10.911Z,99544.09
2022-08-05T00:18:44.934Z,99541.41
2022-08-05T00:21:14.412Z,99544.56
2022-08-05T00:23:46.043Z,99544.88
2022-08-05T00:26:16.483Z,99536.47
2022-08-05T00:28:45.927Z,99539.56
2022-08-05T00:31:14.262Z,99541.44
2022-08-05T00:34:56.128Z,99536.50
2022-08-05T00:37:08.954Z,99545.91
2022-08-05T00:39:16.320Z,99537.00
2022-08-05T00:41:55.211Z,99534.81
2022-08-05T00:44:30.682Z,99539.81
2022-08-05T00:47:01.583Z,99535.88
2022-08-05T00:49:32.659Z,99535.13
2022-08-05T00:52:12.034Z,99527.50
2022-08-05T00:54:39.480Z,99525.19
2022-08-05T00:57:10.749Z,99524.00
2022-08-05T00:59:44.536Z,99523.63
2022-08-05T01:02:12.852Z,99523.97
2022-08-05T01:04:43.943Z,99526.94
2022-08-05T01:07:13.683Z,99527.50
2022-08-05T01:09:42.022Z,99527.50
2022-08-05T01:12:22.333Z,99526.50
2022-08-05T01:14:56.184Z,99518.69
2022-08-05T01:17:40.140Z,99520.84
2022-08-05T01:20:27.118Z,99515.44
2022-08-05T01:23:34.690Z,99527.56
2022-08-05T01:26:02.320Z,99525.19
2022-08-05T01:28:32.496Z,99522.25
2022-08-05T01:31:44.678Z,99520.25
2022-08-05T01:34:31.822Z,99527.31
2022-08-05T01:37:11.183Z,99518.22
2022-08-05T01:39:58.835Z,99516.38
2022-08-05T01:42:28.408Z,99523.88
2022-08-05T01:44:59.937Z,99525.44
2022-08-05T01:47:39.418Z,99522.47
2022-08-05T01:50:15.255Z,99529.72
2022-08-05T01:52:49.875Z,99524.38
2022-08-05T01:55:21.328Z,99530.75
2022-08-05T01:58:13.193Z,99526.31
2022-08-05T02:00:42.502Z,99529.88
2022-08-05T02:03:29.230Z,99529.59
2022-08-05T02:06:33.901Z,99529.25
2022-08-05T02:08:58.137Z,99517.72
2022-08-05T02:11:33.067Z,99529.66
2022-08-05T02:14:12.923Z,99518.59
2022-08-05T02:16:52.751Z,99520.78
2022-08-05T02:19:46.900Z,99524.50
2022-08-05T02:22:30.639Z,99524.81
2022-08-05T02:25:12.913Z,99520.66
2022-08-05T02:27:58.170Z,99522.75
2022-08-05T02:30:34.446Z,99524.53
2022-08-05T02:33:03.479Z,99516.63
2022-08-05T02:35:37.554Z,99526.50
2022-08-05T02:38:09.351Z,99523.00
2022-08-05T02:40:41.668Z,99525.00
2022-08-05T02:43:13.409Z,99523.75
2022-08-05T02:45:52.573Z,99521.72
2022-08-05T02:48:29.507Z,99530.59
2022-08-05T02:51:03.060Z,99529.28
2022-08-05T02:53:38.927Z,99528.56
2022-08-05T02:56:15.812Z,99528.03
2022-08-05T02:58:51.384Z,99530.66
2022-08-05T03:01:25.023Z,99531.50
2022-08-05T03:04:04.181Z,99529.78
2022-08-05T03:06:57.016Z,99524.63
2022-08-05T03:09:36.082Z,99519.94
2022-08-05T03:12:06.370Z,99520.78
2022-08-05T03:14:45.859Z,99517.66
2022-08-05T03:17:16.642Z,99519.78
2022-08-05T03:19:45.628Z,99519.72
2022-08-05T03:22:16.740Z,99524.47
2022-08-05T03:24:51.029Z,99520.22
2022-08-05T03:27:21.236Z,99515.97
2022-08-05T03:30:08.806Z,99520.16
2022-08-05T03:32:37.469Z,99522.47
2022-08-05T03:35:05.939Z,99509.91
2022-08-05T03:37:45.734Z,99507.25
2022-08-05T03:40:14.074Z,99511.84
2022-08-05T03:42:52.365Z,99514.09
2022-08-05T03:45:23.017Z,99516.75
2022-08-05T03:47:51.949Z,99524.97
2022-08-05T03:50:24.562Z,99524.69
2022-08-05T03:54:59.977Z,99519.75
2022-08-05T03:56:12.202Z,99520.03
2022-08-05T03:58:47.836Z,99519.44
2022-08-05T04:01:22.244Z,99526.16
2022-08-05T04:04:09.540Z,99533.84
2022-08-05T04:06:38.484Z,99529.34
2022-08-05T04:09:26.042Z,99530.00
2022-08-05T04:11:56.487Z,99543.38
2022-08-05T04:14:30.536Z,99538.31
2022-08-05T04:17:00.276Z,99528.00
2022-08-05T04:19:29.850Z,99532.03
2022-08-05T04:22:05.736Z,99532.41
2022-08-05T04:24:43.933Z,99524.09
2022-08-05T04:27:15.507Z,99527.47
2022-08-05T04:29:42.808Z,99526.19
2022-08-05T04:32:10.624Z,99532.63
2022-08-05T04:34:42.918Z,99530.63
2022-08-05T04:37:11.332Z,99529.34
2022-08-05T04:39:39.149Z,99526.44
2022-08-05T04:42:07.790Z,99516.13
2022-08-05T04:44:36.546Z,99520.31
2022-08-05T04:47:09.648Z,99518.88
2022-08-05T04:50:02.659Z,99524.63
2022-08-05T04:52:27.390Z,99518.59
2022-08-05T04:54:57.478Z,99522.41
2022-08-05T04:57:29.089Z,99518.44
2022-08-05T04:59:58.544Z,99525.50
2022-08-05T05:02:41.245Z,99525.25
2022-08-05T05:05:25.955Z,99518.41
2022-08-05T05:08:01.642Z,99529.88
2022-08-05T05:10:39.579Z,99518.03
2022-08-05T05:13:19.427Z,99523.03
2022-08-05T05:15:57.267Z,99528.75
2022-08-05T05:18:33.269Z,99517.38
2022-08-05T05:21:02.243Z,99522.72
2022-08-05T05:24:01.613Z,99520.22
2022-08-05T05:26:18.300Z,99522.22
2022-08-05T05:28:45.671Z,99524.66
2022-08-05T05:31:13.455Z,99515.19
2022-08-05T05:33:58.643Z,99519.03
2022-08-05T05:36:28.597Z,99516.06
2022-08-05T05:38:57.959Z,99518.31
2022-08-05T05:41:26.312Z,99517.19
2022-08-05T05:44:26.995Z,99518.72
2022-08-05T05:46:56.159Z,99519.94
2022-08-05T05:49:25.249Z,99523.38
2022-08-05T05:51:53.510Z,99526.00
2022-08-05T05:54:21.339Z,99520.19
2022-08-05T05:56:48.799Z,99524.03
2022-08-05T05:59:18.381Z,99523.34
2022-08-05T06:01:57.843Z,99523.25
2022-08-05T06:04:25.419Z,99520.16
2022-08-05T06:06:52.920Z,99522.78
2022-08-05T06:09:26.504Z,99524.38
2022-08-05T06:12:09.511Z,99524.31
2022-08-05T06:14:37.158Z,99522.94
2022-08-05T06:17:22.672Z,99525.19
2022-08-05T06:19:57.001Z,99519.88
2022-08-05T06:22:33.628Z,99521.19
2022-08-05T06:25:24.488Z,99524.25
2022-08-05T06:28:10.625Z,99521.91
2022-08-05T06:30:36.736Z,99524.81
2022-08-05T06:33:04.125Z,99524.50
2022-08-05T06:36:07.251Z,99517.72
2022-08-05T06:38:18.700Z,99527.19
2022-08-05T06:41:07.807Z,99525.78
2022-08-05T06:43:57.836Z,99531.66
2022-08-05T06:46:29.815Z,99520.81
2022-08-05T06:48:59.763Z,99524.75
2022-08-05T06:51:30.245Z,99518.25
2022-08-05T06:54:03.366Z,99531.22
2022-08-05T06:56:34.610Z,99533.50
2022-08-05T06:59:04.020Z,99520.34
2022-08-05T07:01:37.200Z,99525.03
2022-08-05T07:04:10.930Z,99518.13
2022-08-05T07:06:43.050Z,99522.84
2022-08-05T07:09:10.336Z,99525.09
2022-08-05T07:11:39.878Z,99526.72
2022-08-05T07:14:29.923Z,99524.41
2022-08-05T07:18:01.493Z,99530.44
2022-08-05T07:20:34.175Z,99526.69
2022-08-05T07:22:38.165Z,99524.78
2022-08-05T07:25:23.620Z,99522.84
2022-08-05T07:27:57.687Z,99523.13
2022-08-05T07:30:38.912Z,99518.81
2022-08-05T07:33:10.568Z,99515.50
2022-08-05T07:36:03.192Z,99514.69
2022-08-05T07:38:33.446Z,99508.63
2022-08-05T07:42:08.072Z,99513.69
2022-08-05T07:43:56.793Z,99518.03
2022-08-05T07:46:29.848Z,99512.38
2022-08-05T07:49:05.540Z,99517.00
2022-08-05T07:51:37.158Z,99522.22
2022-08-05T07:54:12.743Z,99517.72
2022-08-05T07:57:01.237Z,99511.00
2022-08-05T07:59:38.825Z,99507.44
2022-08-05T08:02:17.037Z,99507.69
2022-08-05T08:04:48.429Z,99514.69
2022-08-05T08:07:22.733Z,99502.91
2022-08-05T08:09:52.884Z,99510.09
2022-08-05T08:12:35.036Z,99507.03
2022-08-05T08:15:14.136Z,99510.91
2022-08-05T08:17:50.561Z,99507.34
2022-08-05T08:20:45.358Z,99500.31
2022-08-05T08:23:59.963Z,99502.19
2022-08-05T08:25:59.945Z,99502.50
2022-08-05T08:28:35.580Z,99499.16
2022-08-05T08:31:09.025Z,99500.22
2022-08-05T08:33:38.012Z,99498.34
2022-08-05T08:38:57.260Z,99486.22
2022-08-05T08:41:52.064Z,99485.16
2022-08-05T08:45:24.750Z,99483.50
2022-08-05T08:47:46.834Z,99485.78
2022-08-05T08:50:30.011Z,99482.44
2022-08-05T08:52:51.712Z,99475.06
2022-08-05T08:56:02.976Z,99472.19
2022-08-05T08:58:13.164Z,99467.38
2022-08-05T09:00:41.999Z,99460.25
2022-08-05T09:03:11.338Z,99460.06
2022-08-05T09:06:09.094Z,99462.06
2022-08-05T09:08:26.656Z,99455.22
2022-08-05T09:10:58.994Z,99446.41
2022-08-05T09:13:31.741Z,99445.56
2022-08-05T09:16:16.742Z,99441.97
2022-08-05T09:18:44.558Z,99436.63
2022-08-05T09:21:20.650Z,99438.78
2022-08-05T09:24:10.162Z,99428.56
2022-08-05T09:26:37.900Z,99430.72
2022-08-05T09:29:09.207Z,99431.84
2022-08-05T09:32:40.378Z,99425.63
2022-08-05T09:34:26.050Z,99424.28
2022-08-05T09:36:56.156Z,99425.78
2022-08-05T09:39:41.641Z,99426.94
2022-08-05T09:42:23.141Z,99426.34
2022-08-05T09:45:17.250Z,99407.88
2022-08-05T09:47:55.388Z,99417.34
2022-08-05T09:50:38.488Z,99412.31
2022-08-05T09:53:23.125Z,99405.34
2022-08-05T09:56:03.721Z,99398.38
2022-08-05T09:58:41.995Z,99399.66
2022-08-05T10:01:15.718Z,99401.53
2022-08-05T10:04:12.423Z,99390.03
2022-08-05T10:06:58.631Z,99395.88
2022-08-05T10:09:29.423Z,99392.38
2022-08-05T10:12:18.491Z,99385.06
2022-08-05T10:15:29.651Z,99391.69
2022-08-05T10:18:10.846Z,99390.41
2022-08-05T10:20:39.550Z,99390.56
2022-08-05T10:23:33.979Z,99384.38
2022-08-05T10:26:03.385Z,99385.56
2022-08-05T10:28:36.406Z,99370.66
2022-08-05T10:32:50.751Z,99368.78
2022-08-05T10:33:52.301Z,99363.97
2022-08-05T10:36:23.763Z,99372.19
2022-08-05T10:39:01.361Z,99371.22
2022-08-05T10:41:49.048Z,99367.50
2022-08-05T10:44:19.686Z,99358.19
2022-08-05T10:46:58.655Z,99353.31
2022-08-05T10:49:33.282Z,99341.44
2022-08-05T10:52:49.504Z,99344.16
2022-08-05T10:55:18.781Z,99343.03
2022-08-05T10:57:51.250Z,99340.50
2022-08-05T11:00:24.366Z,99327.88
2022-08-05T11:03:25.673Z,99327.94
2022-08-05T11:06:04.267Z,99324.34
2022-08-05T11:08:37.120Z,99330.56
2022-08-05T11:11:44.608Z,99328.13
2022-08-05T11:14:57.759Z,99323.47
2022-08-05T11:18:00.052Z,99316.50
2022-08-05T11:20:37.296Z,99318.97
2022-08-05T11:24:04.649Z,99322.91
2022-08-05T11:26:40.332Z,99324.81
2022-08-05T11:29:14.063Z,99316.44
2022-08-05T11:31:58.329Z,99311.56
2022-08-05T11:34:50.944Z,99298.22
2022-08-05T11:38:30.133Z,99304.13
2022-08-05T11:41:35.289Z,99316.13
2022-08-05T11:44:06.292Z,99316.31
2022-08-05T11:46:58.152Z,99292.97
2022-08-05T11:49:34.037Z,99296.44
2022-08-05T11:52:11.314Z,99286.50
2022-08-05T11:54:41.394Z,99294.84
2022-08-05T11:57:25.075Z,99296.75
2022-08-05T11:59:56.565Z,99306.69
2022-08-05T12:02:33.652Z,99307.09
2022-08-05T12:05:08.252Z,99297.03
2022-08-05T12:08:08.753Z,99284.66
2022-08-05T12:10:45.965Z,99282.44
2022-08-05T12:13:27.998Z,99272.28
2022-08-05T12:16:14.934Z,99274.03
2022-08-05T12:18:49.033Z,99274.81
2022-08-05T12:21:43.715Z,99258.34
2022-08-05T12:24:21.088Z,99272.41
2022-08-05T12:26:55.279Z,99266.19
2022-08-05T12:29:38.739Z,99266.75
2022-08-05T12:32:09.610Z,99257.53
2022-08-05T12:34:38.665Z,99245.53
2022-08-05T12:37:17.265Z,99239.69
2022-08-05T12:39:48.753Z,99235.91
2022-08-05T12:42:20.906Z,99235.69
2022-08-05T12:44:48.883Z,99228.00
2022-08-05T12:47:30.676Z,99226.00
2022-08-05T12:50:12.794Z,99234.56
2022-08-05T12:52:42.513Z,99232.81
2022-08-05T12:55:26.316Z,99222.78
2022-08-05T12:58:50.285Z,99223.88
2022-08-05T13:02:05.740Z,99233.44
2022-08-05T13:03:41.511Z,99230.94
2022-08-05T13:06:17.677Z,99229.41
2022-08-05T13:08:50.892Z,99221.53
2022-08-05T13:12:01.179Z,99221.41
2022-08-05T13:14:24.909Z,99223.47
2022-08-05T13:17:20.404Z,99219.03
2022-08-05T13:20:01.031Z,99218.41
2022-08-05T13:22:29.894Z,99223.41
2022-08-05T13:25:05.089Z,99210.75
2022-08-05T13:27:58.342Z,99209.84
2022-08-05T13:30:34.659Z,99208.44
2022-08-05T13:33:04.311Z,99196.66
2022-08-05T13:35:47.114Z,99199.47
2022-08-05T13:38:30.911Z,99190.16
2022-08-05T13:41:06.097Z,99192.56
2022-08-05T13:43:45.582Z,99197.09
2022-08-05T13:46:37.920Z,99196.91
2022-08-05T13:49:11.747Z,99199.00
2022-08-05T13:51:46.264Z,99193.84
2022-08-05T13:54:24.970Z,99187.19
2022-08-05T13:56:53.563Z,99191.16
2022-08-05T13:59:24.346Z,99175.91
2022-08-05T14:01:57.470Z,99174.84
2022-08-05T14:04:51.491Z,99172.59
2022-08-05T14:08:01.174Z,99168.88
2022-08-05T14:10:28.411Z,99170.75
2022-08-05T14:12:57.109Z,99164.25
2022-08-05T14:16:08.817Z,99150.91
2022-08-05T14:18:17.797Z,99141.25
2022-08-05T14:20:49.072Z,99139.59
2022-08-05T14:23:25.489Z,99139.88
2022-08-05T14:25:58.412Z,99137.91
2022-08-05T14:28:30.610Z,99136.88
2022-08-05T14:30:59.579Z,99133.16
2022-08-05T14:33:32.642Z,99137.88
2022-08-05T14:36:21.292Z,99138.38
2022-08-05T14:38:49.800Z,99135.13
2022-08-05T14:41:18.811Z,99135.88
2022-08-05T14:43:59.271Z,99135.91
2022-08-05T14:46:30.714Z,99135.19
2022-08-05T14:49:06.670Z,99127.94
2022-08-05T14:51:37.814Z,99124.19
2022-08-05T14:54:27.172Z,99127.69
2022-08-05T14:56:58.213Z,99125.59
2022-08-05T14:59:29.641Z,99132.69
2022-08-05T15:02:24.358Z,99139.34
2022-08-05T15:04:53.407Z,99131.88
2022-08-05T15:07:21.708Z,99141.25
2022-08-05T15:10:09.769Z,99128.34
2022-08-05T15:12:59.750Z,99123.28
2022-08-05T15:15:53.847Z,99119.91
2022-08-05T15:18:12.583Z,99126.34
2022-08-05T15:20:42.153Z,99123.94
2022-08-05T15:23:12.303Z,99118.28
2022-08-05T15:25:52.073Z,99117.09
2022-08-05T15:28:27.821Z,99113.88
2022-08-05T15:30:55.547Z,99103.78
2022-08-05T15:34:18.592Z,99109.50
2022-08-05T15:36:17.422Z,99105.91
2022-08-05T15:39:07.617Z,99116.47
2022-08-05T15:41:58.531Z,99114.06
2022-08-05T15:44:30.297Z,99123.41
2022-08-05T15:46:59.338Z,99106.47
2022-08-05T15:49:41.845Z,99106.84
2022-08-05T15:52:16.843Z,99093.06
2022-08-05T15:54:57.005Z,99102.66
2022-08-05T15:57:33.076Z,99093.38
2022-08-05T16:00:03.280Z,99096.31
2022-08-05T16:02:32.290Z,99096.13
2022-08-05T16:05:00.231Z,99100.63
2022-08-05T16:07:31.717Z,99093.06
2022-08-05T16:09:59.650Z,99092.91
2022-08-05T16:12:27.542Z,99098.88
2022-08-05T16:14:54.904Z,99099.00
2022-08-05T16:17:22.947Z,99099.53
2022-08-05T16:20:05.693Z,99095.38
2022-08-05T16:22:38.736Z,99105.34
2022-08-05T16:25:09.436Z,99099.28
2022-08-05T16:27:59.830Z,99108.00
2022-08-05T16:30:29.098Z,99098.13
2022-08-05T16:32:57.860Z,99098.19
2022-08-05T16:35:28.446Z,99098.81
2022-08-05T16:38:16.199Z,99087.91
2022-08-05T16:40:51.990Z,99094.34
2022-08-05T16:43:24.022Z,99086.00
2022-08-05T16:46:04.608Z,99087.22
2022-08-05T16:48:36.369Z,99087.13
2022-08-05T16:51:08.744Z,99090.06
2022-08-05T16:54:05.650Z,99093.53
2022-08-05T16:56:30.987Z,99098.91
2022-08-05T16:58:59.159Z,99101.22
2022-08-05T17:01:52.510Z,99099.84
2022-08-05T17:04:18.911Z,99099.19
2022-08-05T17:06:46.337Z,99103.50
2022-08-05T17:09:21.149Z,99107.47
2022-08-05T17:11:56.000Z,99110.91
2022-08-05T17:14:34.546Z,99107.28
2022-08-05T17:17:06.820Z,99111.38
2022-08-05T17:19:43.875Z,99104.78
2022-08-05T17:22:24.375Z,99104.78
2022-08-05T17:24:57.103Z,99114.16
2022-08-05T17:27:34.280Z,99113.91
2022-08-05T17:30:12.171Z,99117.16
2022-08-05T17:32:46.719Z,99116.28
2022-08-05T17:35:15.890Z,99117.75
2022-08-05T17:37:48.879Z,99121.94
2022-08-05T17:40:22.320Z,99120.09
2022-08-05T17:42:52.819Z,99124.34
2022-08-05T17:45:22.570Z,99132.41
2022-08-05T17:47:55.089Z,99127.28
2022-08-05T17:50:28.046Z,99130.94
2022-08-05T17:53:01.165Z,99128.78
2022-08-05T17:55:37.257Z,99139.31
2022-08-05T17:58:13.233Z,99141.31
2022-08-05T18:00:50.962Z,99145.47
2022-08-05T18:06:11.232Z,99145.09
2022-08-05T18:08:44.555Z,99159.09
2022-08-05T18:11:23.876Z,99156.72
2022-08-05T18:14:00.412Z,99169.25
2022-08-05T18:16:30.612Z,99162.97
2022-08-05T18:18:57.908Z,99166.00
2022-08-05T18:22:07.804Z,99171.56
2022-08-05T18:24:15.523Z,99169.50
2022-08-05T18:26:43.783Z,99177.41
2022-08-05T18:29:11.383Z,99177.59
2022-08-05T18:31:43.102Z,99175.41
2022-08-05T18:34:12.177Z,99174.31
2022-08-05T18:36:41.233Z,99171.06
2022-08-05T18:39:41.794Z,99178.78
2022-08-05T18:42:02.973Z,99174.25
2022-08-05T18:44:49.220Z,99171.72
2022-08-05T18:47:26.561Z,99175.63
2022-08-05T18:50:13.224Z,99176.47
2022-08-05T18:52:50.591Z,99185.75
2022-08-05T18:55:21.697Z,99184.03
2022-08-05T18:57:53.031Z,99190.16
2022-08-05T19:00:29.030Z,99184.03
2022-08-05T19:03:04.262Z,99185.69
2022-08-05T19:06:11.915Z,99186.31
2022-08-05T19:08:19.955Z,99183.84
2022-08-05T19:10:50.131Z,99188.25
2022-08-05T19:13:18.300Z,99191.75
2022-08-05T19:15:59.713Z,99189.69
2022-08-05T19:18:28.731Z,99187.06
2022-08-05T19:20:56.262Z,99182.63
2022-08-05T19:24:05.320Z,99188.22
2022-08-05T19:26:12.763Z,99191.97
2022-08-05T19:28:43.937Z,99187.88
2022-08-05T19:31:17.722Z,99183.16
2022-08-05T19:33:48.246Z,99194.44
2022-08-05T19:36:27.173Z,99191.50
2022-08-05T19:39:00.621Z,99194.44
2022-08-05T19:42:05.415Z,99190.75
2022-08-05T19:44:18.869Z,99193.47
2022-08-05T19:46:46.482Z,99195.28
2022-08-05T19:49:17.094Z,99205.94
2022-08-05T19:52:05.975Z,99204.31
2022-08-05T19:54:35.254Z,99204.09
2022-08-05T19:57:06.692Z,99201.94
2022-08-05T20:00:00.994Z,99201.75
2022-08-05T20:02:27.100Z,99196.97
2022-08-05T20:04:59.019Z,99202.19
2022-08-05T20:07:46.486Z,99198.31
2022-08-05T20:10:17.522Z,99207.75
2022-08-05T20:12:49.236Z,99204.84
2022-08-05T20:15:48.561Z,99199.16
2022-08-05T20:18:33.711Z,99212.03
2022-08-05T20:20:58.076Z,99209.53
2022-08-05T20:23:39.602Z,99212.81
2022-08-05T20:26:17.090Z,99209.44
2022-08-05T20:28:51.389Z,99205.75
2022-08-05T20:31:36.861Z,99223.06
2022-08-05T20:34:10.730Z,99209.91
2022-08-05T20:36:39.163Z,99215.16
2022-08-05T20:39:16.105Z,99214.53
2022-08-05T20:41:45.341Z,99213.38
2022-08-05T20:44:29.156Z,99215.25
2022-08-05T20:47:03.610Z,99211.91
2022-08-05T20:49:33.181Z,99216.19
2022-08-05T20:52:05.791Z,99221.69
2022-08-05T20:54:59.087Z,99225.09
2022-08-05T20:57:43.868Z,99215.81
2022-08-05T21:00:41.591Z,99220.81
2022-08-05T21:03:06.992Z,99218.97
2022-08-05T21:05:47.713Z,99220.50
2022-08-05T21:08:35.951Z,99221.94
2022-08-05T21:12:07.443Z,99226.66
2022-08-05T21:14:01.452Z,99227.69
2022-08-05T21:16:30.782Z,99233.03
2022-08-05T21:19:00.649Z,99241.81
2022-08-05T21:21:39.639Z,99237.75
2022-08-05T21:24:13.552Z,99233.94
2022-08-05T21:26:47.383Z,99238.19
2022-08-05T21:29:26.657Z,99237.66
2022-08-05T21:32:00.212Z,99244.59
2022-08-05T21:34:31.604Z,99235.72
2022-08-05T21:36:59.153Z,99231.69
2022-08-05T21:39:29.515Z,99231.88
2022-08-05T21:42:02.073Z,99234.25
2022-08-05T21:44:30.464Z,99231.34
2022-08-05T21:47:01.376Z,99232.81
2022-08-05T21:49:48.018Z,99235.09
2022-08-05T21:52:28.047Z,99240.00
2022-08-05T21:54:57.804Z,99241.47
2022-08-05T21:57:36.108Z,99236.69
2022-08-05T22:00:12.329Z,99238.47
2022-08-05T22:02:44.002Z,99235.25
2022-08-05T22:05:13.633Z,99234.13
2022-08-05T22:07:59.134Z,99232.38
2022-08-05T22:10:30.973Z,99231.59
2022-08-05T22:13:09.279Z,99227.13
2022-08-05T22:15:56.629Z,99222.63
2022-08-05T22:18:33.889Z,99223.03
2022-08-05T22:21:04.739Z,99230.28
2022-08-05T22:24:02.539Z,99225.72
2022-08-05T22:26:54.411Z,99221.91
2022-08-05T22:29:26.758Z,99224.97
2022-08-05T22:31:59.570Z,99224.94
2022-08-05T22:34:30.229Z,99218.06
2022-08-05T22:36:58.350Z,99222.38
2022-08-05T22:39:33.716Z,99222.00
2022-08-05T22:42:12.553Z,99222.09
2022-08-05T22:44:53.403Z,99221.38
2022-08-05T22:47:28.954Z,99227.88
2022-08-05T22:50:20.708Z,99229.75
2022-08-05T22:52:52.770Z,99221.34
2022-08-05T22:55:21.916Z,99227.84
2022-08-05T22:57:53.738Z,99226.69
2022-08-05T23:00:23.560Z,99227.09
2022-08-05T23:02:53.636Z,99227.09
2022-08-05T23:05:22.472Z,99237.34
2022-08-05T23:07:51.281Z,99233.97
2022-08-05T23:10:23.543Z,99232.06
2022-08-05T23:12:54.701Z,99235.09
2022-08-05T23:15:30.043Z,99225.56
2022-08-05T23:18:05.877Z,99236.63
2022-08-05T23:20:39.356Z,99227.50
2022-08-05T23:23:09.588Z,99227.88
2022-08-05T23:25:51.590Z,99232.06
2022-08-05T23:28:21.971Z,99229.41
2022-08-05T23:30:53.768Z,99228.66
2022-08-05T23:33:26.249Z,99229.03
2022-08-05T23:36:13.570Z,99225.22
2022-08-05T23:38:41.988Z,99229.78
2022-08-05T23:41:10.745Z,99229.78
2022-08-05T23:44:04.823Z,99232.84
2022-08-05T23:46:25.711Z,99229.00
2022-08-05T23:49:00.658Z,99229.75
2022-08-05T23:51:53.506Z,99224.03
2022-08-05T23:54:38.527Z,99214.50
2022-08-05T23:57:07.213Z,99216.03
